Bila Tserkva, Ukraine
Current Conditions -  °F | °C
As of 4:30 AM on Wednesday 26 Nov 2014 (Local Time) from UKKK Reporting Station
Light Snow Light Snow  
Wind Chill: 15°   Ceiling: 1600
Heat Index: 23°   Visibility: 6mi
Dew Point: 19°   Wind: 7mph
Humidity: 86%   Direction: 80°E
Pressure: 30.42"   Gusts: NA
Location:  49.78°N, 30.12°E
Report Text: UKKK 260130Z 08003MPS 9999 -SN OVC016 M05/M07 Q1030 08810360 NOSIG
Loading
Personal Weather Stations






























Interactive Weather Map New forecast layout! Learn more

10-Day Weather Forecast

Advertisements
Track Severe Weather on mobile